Time;durP1;ratioP1;P1;durP2;ratioP2;P2;SDS_P1;SDS_P2;PMS_P1;PMS_P2;Temp;Humidity;BMP_temperature;BMP_pressure;BME280_temperature;BME280_humidity;BME280_pressure;Samples;Min_cycle;Max_cycle;Signal;HPM_P1;HPM_P2
2022/11/14 00:01:19;;;;;;;10.00;2.85;;;4.50;99.90;;;4.71;100.00;100591.34;5168756;27;40848;-75
2022/11/14 00:04:06;;;;;;;7.80;3.10;;;4.40;99.90;;;4.59;100.00;100588.72;5168575;27;41112;-76
2022/11/14 00:06:53;;;;;;;9.98;2.90;;;4.40;99.90;;;4.45;100.00;100584.72;5166318;27;43109;-75
2022/11/14 00:09:41;;;;;;;7.75;3.38;;;4.30;99.90;;;4.53;100.00;100584.31;5147736;27;41179;-75
2022/11/14 00:12:28;;;;;;;6.93;2.67;;;4.20;99.90;;;4.51;100.00;100597.19;5132166;27;39095;-74
2022/11/14 00:15:16;;;;;;;7.45;3.17;;;4.10;99.90;;;4.32;100.00;100597.44;5147177;27;39980;-75
2022/11/14 00:18:04;;;;;;;;;;;4.10;99.90;;;4.20;100.00;100598.56;5132388;27;40420;-74
2022/11/14 00:20:53;;;;;;;10.23;2.90;;;4.10;99.90;;;4.16;100.00;100600.94;5147084;27;42560;-75
2022/11/14 00:23:40;;;;;;;8.23;2.90;;;4.00;99.90;;;4.07;100.00;100602.38;5147335;27;39959;-76
2022/11/14 00:26:27;;;;;;;6.95;2.63;;;4.00;99.90;;;4.13;100.00;100601.41;5131990;27;38711;-77
2022/11/14 00:29:16;;;;;;;7.53;2.80;;;3.90;99.90;;;4.02;100.00;100596.88;5147228;27;43052;-77
2022/11/14 00:32:02;;;;;;;7.22;3.20;;;3.80;99.90;;;3.99;100.00;100606.25;5146850;27;41239;-76
2022/11/14 00:34:51;;;;;;;7.72;3.65;;;3.70;99.90;;;3.95;100.00;100600.53;5146558;27;41081;-76
2022/11/14 00:37:38;;;;;;;8.60;3.40;;;3.60;99.90;;;3.84;100.00;100600.59;5147204;27;40947;-76
2022/11/14 00:40:25;;;;;;;8.38;3.70;;;3.60;99.90;;;3.82;100.00;100592.78;5149833;27;42640;-75
2022/11/14 00:43:12;;;;;;;8.52;3.60;;;3.50;99.90;;;3.66;100.00;100601.56;5146766;27;42578;-77
2022/11/14 00:45:59;;;;;;;7.40;3.63;;;3.50;99.90;;;3.71;100.00;100598.97;5146884;27;40058;-75
2022/11/14 00:48:46;;;;;;;6.85;2.78;;;3.50;99.90;;;3.69;100.00;100593.84;5147353;27;40502;-74
2022/11/14 00:51:34;;;;;;;7.05;3.03;;;3.60;99.90;;;3.76;100.00;100591.84;5150035;27;41657;-76
2022/11/14 00:54:22;;;;;;;5.43;2.55;;;3.60;99.90;;;3.79;100.00;100598.63;5147173;27;41566;-76
2022/11/14 00:57:09;;;;;;;6.38;2.47;;;3.70;99.90;;;3.94;100.00;100590.88;5147253;27;40974;-75
2022/11/14 00:59:56;;;;;;;6.47;3.08;;;3.70;99.90;;;4.07;100.00;100597.00;5131259;27;39046;-75
2022/11/14 01:02:43;;;;;;;7.40;3.00;;;3.70;99.90;;;3.99;100.00;100594.69;5146381;27;42280;-75
2022/11/14 01:05:30;;;;;;;8.18;2.75;;;3.80;99.90;;;4.01;100.00;100587.22;5148873;27;41041;-76
2022/11/14 01:08:20;;;;;;;7.65;2.50;;;3.80;99.90;;;3.90;100.00;100587.00;5152441;27;39695;-77
2022/11/14 01:11:11;;;;;;;6.90;2.97;;;3.80;99.90;;;4.01;100.00;100589.91;5167697;27;41040;-77
2022/11/14 01:13:58;;;;;;;5.63;2.42;;;3.90;99.90;;;4.16;100.00;100584.81;5167373;27;41849;-76
2022/11/14 01:16:45;;;;;;;5.40;2.90;;;3.90;99.90;;;4.17;100.00;100590.97;5151966;27;40547;-75
2022/11/14 01:19:32;;;;;;;10.13;3.37;;;3.90;99.90;;;4.11;100.00;100590.91;5167463;27;40229;-75
2022/11/14 01:22:19;;;;;;;6.00;2.75;;;3.90;99.90;;;4.04;100.00;100581.34;5170222;27;40877;-75
2022/11/14 01:25:09;;;;;;;6.32;2.60;;;3.90;99.90;;;4.07;100.00;100580.88;5167104;27;42437;-74
2022/11/14 01:27:56;;;;;;;6.47;2.95;;;3.90;99.90;;;4.18;100.00;100577.31;5167287;27;42159;-76
2022/11/14 01:30:43;;;;;;;5.65;3.10;;;3.90;99.90;;;4.17;100.00;100570.28;5166857;27;41773;-75
2022/11/14 01:33:30;;;;;;;7.00;2.50;;;3.90;99.90;;;4.14;100.00;100582.34;5167219;27;41724;-76
2022/11/14 01:36:18;;;;;;;7.75;2.45;;;3.90;99.90;;;4.06;100.00;100577.34;5167128;27;41940;-76
2022/11/14 01:39:05;;;;;;;;;;;3.90;99.90;;;4.22;100.00;100581.13;5168412;27;41513;-76
2022/11/14 01:41:54;;;;;;;6.35;2.50;;;3.90;99.90;;;4.04;100.00;100586.72;5167542;27;40428;-76
2022/11/14 01:44:51;;;;;;;5.38;2.17;;;3.90;99.90;;;4.15;100.00;100583.16;5167493;27;40809;-76
2022/11/14 01:47:38;;;;;;;5.00;2.42;;;3.90;99.90;;;4.30;100.00;100580.75;5167081;27;41881;-75
2022/11/14 01:50:27;;;;;;;7.53;2.60;;;4.00;99.90;;;4.44;100.00;100580.41;5166824;27;41592;-74
2022/11/14 01:53:14;;;;;;;7.75;2.90;;;4.00;99.90;;;4.49;100.00;100591.25;5166906;27;40325;-75
2022/11/14 01:56:06;;;;;;;4.80;2.22;;;4.00;99.90;;;4.49;100.00;100589.38;5167046;27;39498;-75
2022/11/14 01:58:59;;;;;;;6.57;2.03;;;4.00;99.90;;;4.45;100.00;100580.16;5166379;27;41814;-75
2022/11/14 02:01:50;;;;;;;6.32;2.63;;;4.00;99.90;;;4.44;100.00;100580.41;5166912;27;41265;-75
2022/11/14 02:04:42;;;;;;;7.43;2.75;;;4.00;99.90;;;4.47;100.00;100574.53;5166856;27;41124;-75
2022/11/14 02:07:33;;;;;;;6.57;2.40;;;4.00;99.90;;;4.30;100.00;100574.53;5166617;27;40098;-74
2022/11/14 02:10:22;;;;;;;4.68;2.22;;;4.00;99.90;;;4.43;100.00;100573.41;5167397;27;42777;-77
2022/11/14 02:13:09;;;;;;;4.93;2.05;;;4.00;99.90;;;4.64;100.00;100570.00;5166641;27;43008;-76
2022/11/14 02:15:57;;;;;;;6.07;2.47;;;4.10;99.90;;;4.56;100.00;100567.69;5167039;27;39981;-76
2022/11/14 02:18:44;;;;;;;4.78;2.10;;;4.10;99.90;;;4.63;100.00;100562.97;5170061;27;40782;-74
2022/11/14 02:21:33;;;;;;;7.82;2.40;;;4.00;99.90;;;4.59;100.00;100559.13;5170341;27;42424;-75
2022/11/14 02:24:20;;;;;;;6.63;2.60;;;4.10;99.90;;;4.40;100.00;100560.47;5170324;27;42508;-76
2022/11/14 02:27:08;;;;;;;7.53;2.50;;;4.00;99.90;;;4.51;100.00;100554.19;5169723;27;41315;-74
2022/11/14 02:30:02;;;;;;;6.03;2.42;;;4.00;99.90;;;4.55;100.00;100551.81;5170134;27;42247;-76
2022/11/14 02:32:49;;;;;;;5.35;2.38;;;4.00;99.90;;;4.41;100.00;100564.75;5169978;27;42171;-76
2022/11/14 02:35:36;;;;;;;5.03;2.30;;;3.90;99.90;;;4.49;100.00;100565.19;5170219;27;42223;-76
2022/11/14 02:38:24;;;;;;;6.20;2.78;;;3.90;99.90;;;4.61;100.00;100559.72;5170331;27;39968;-76
2022/11/14 02:41:11;;;;;;;6.07;2.40;;;4.00;99.90;;;4.32;100.00;100562.50;5154760;27;38698;-75
2022/11/14 02:43:58;;;;;;;5.88;2.75;;;3.90;99.90;;;4.28;100.00;100558.66;5170012;27;41557;-76
2022/11/14 02:46:45;;;;;;;5.78;2.30;;;3.80;99.90;;;4.20;100.00;100553.69;5170122;27;41469;-75
2022/11/14 02:49:32;;;;;;;8.30;2.20;;;3.80;99.90;;;4.09;100.00;100557.25;5170048;27;40841;-76
2022/11/14 02:52:19;;;;;;;5.93;3.08;;;3.70;99.90;;;4.19;100.00;100557.44;5154683;27;39954;-76
2022/11/14 02:55:09;;;;;;;6.75;2.33;;;3.80;99.90;;;4.07;100.00;100565.56;5169404;27;43286;-76
2022/11/14 02:57:56;;;;;;;4.47;1.85;;;3.70;99.90;;;4.16;100.00;100557.94;5169692;27;41357;-77
2022/11/14 03:00:43;;;;;;;7.28;2.40;;;3.70;99.90;;;4.23;100.00;100563.94;5169903;27;41643;-75
2022/11/14 03:03:30;;;;;;;6.78;2.60;;;3.70;99.90;;;4.14;100.00;100552.81;5169554;27;40819;-76
2022/11/14 03:06:17;;;;;;;7.25;2.72;;;3.80;99.90;;;4.24;100.00;100554.00;5170360;27;42441;-78
2022/11/14 03:09:05;;;;;;;6.63;2.67;;;3.80;99.90;;;4.07;100.00;100544.06;5169702;27;42674;-76
2022/11/14 03:11:53;;;;;;;5.78;2.50;;;3.80;99.90;;;4.09;100.00;100541.16;5169321;27;40134;-77
2022/11/14 03:14:40;;;;;;;5.07;2.28;;;3.80;99.90;;;4.25;100.00;100545.69;5169334;27;40074;-75
2022/11/14 03:17:30;;;;;;;6.57;3.15;;;3.80;99.90;;;3.98;100.00;100550.09;5169235;27;42508;-76
2022/11/14 03:20:18;;;;;;;5.15;2.63;;;3.70;99.90;;;4.04;100.00;100544.56;5153969;27;40189;-77
2022/11/14 03:23:06;;;;;;;6.55;3.03;;;3.70;99.90;;;4.13;100.00;100556.53;5168731;27;41151;-76
2022/11/14 03:25:53;;;;;;;7.68;2.90;;;3.70;99.90;;;4.20;100.00;100553.69;5169252;27;41848;-77
2022/11/14 03:28:42;;;;;;;7.75;3.42;;;3.70;99.90;;;3.88;100.00;100556.06;5168635;27;42991;-77
2022/11/14 03:31:29;;;;;;;6.75;2.63;;;3.70;99.90;;;3.94;100.00;100555.94;5153621;27;41419;-77
2022/11/14 03:34:16;;;;;;;7.57;2.78;;;3.70;99.90;;;3.96;100.00;100548.44;5168986;27;40256;-74
2022/11/14 03:37:03;;;;;;;7.00;3.00;;;3.60;99.90;;;4.05;100.00;100546.19;5168833;27;40573;-75
2022/11/14 03:39:49;;;;;;;6.20;2.88;;;3.70;99.90;;;4.21;100.00;100549.94;5170780;27;42046;-76
2022/11/14 03:42:37;;;;;;;7.68;3.13;;;3.70;99.90;;;4.14;100.00;100550.13;5168627;27;41265;-74
2022/11/14 03:45:25;;;;;;;9.07;3.20;;;3.70;99.90;;;4.12;100.00;100556.78;5168724;27;40272;-76
2022/11/14 03:48:13;;;;;;;6.13;2.80;;;3.70;99.90;;;4.16;100.00;100547.19;5168908;27;39860;-76
2022/11/14 03:51:00;;;;;;;5.45;2.63;;;3.70;99.90;;;4.16;100.00;100557.94;5168230;27;42574;-76
2022/11/14 03:53:47;;;;;;;8.50;2.50;;;3.70;99.90;;;4.21;100.00;100552.63;5168325;27;41527;-75
2022/11/14 03:56:34;;;;;;;4.50;2.42;;;3.70;99.90;;;4.10;100.00;100551.66;5153494;27;38646;-76
2022/11/14 03:59:21;;;;;;;7.40;2.92;;;3.70;99.90;;;4.01;100.00;100549.59;5168876;27;39837;-76
2022/11/14 04:02:10;;;;;;;5.75;2.45;;;3.70;99.90;;;4.13;100.00;100542.28;5168476;27;43071;-76
2022/11/14 04:04:57;;;;;;;8.27;2.72;;;3.70;99.90;;;4.04;100.00;100539.19;5168538;27;41562;-76
2022/11/14 04:07:44;;;;;;;5.50;3.10;;;3.60;99.90;;;4.02;100.00;100538.63;5171613;27;40070;-75
2022/11/14 04:10:30;;;;;;;5.35;2.50;;;3.70;99.90;;;4.19;100.00;100535.94;5168197;27;39927;-75
2022/11/14 04:13:18;;;;;;;10.27;4.70;;;3.70;99.90;;;4.34;100.00;100539.94;5168006;27;41941;-71
2022/11/14 04:16:07;;;;;;;7.07;3.00;;;3.80;99.90;;;4.25;100.00;100540.31;5167649;27;42239;-74
2022/11/14 04:18:56;;;;;;;7.18;3.30;;;3.70;99.90;;;4.29;100.00;100541.47;5167460;27;41403;-72
2022/11/14 04:21:42;;;;;;;7.25;3.22;;;3.70;99.90;;;4.22;100.00;100535.44;5167653;27;40742;-72
2022/11/14 04:24:30;;;;;;;7.88;4.28;;;3.70;99.90;;;4.14;100.00;100527.78;5167545;27;42808;-71
2022/11/14 04:27:16;;;;;;;7.20;2.65;;;3.60;99.90;;;4.17;100.00;100538.06;5167448;27;43351;-72
2022/11/14 04:30:04;;;;;;;8.80;3.40;;;3.60;99.90;;;4.02;100.00;100540.47;5167434;27;40128;-71
2022/11/14 04:32:51;;;;;;;8.13;3.50;;;3.50;99.90;;;3.96;100.00;100540.38;5167465;27;40035;-74
2022/11/14 04:35:40;;;;;;;6.13;3.30;;;3.50;99.90;;;4.00;100.00;100539.91;5167465;27;42350;-75
2022/11/14 04:38:26;;;;;;;4.93;2.70;;;3.50;99.90;;;3.88;100.00;100550.69;5169490;27;41122;-75
2022/11/14 04:41:13;;;;;;;5.25;3.10;;;3.40;99.90;;;3.92;100.00;100547.28;5152816;27;40431;-79
2022/11/14 04:44:00;;;;;;;7.90;3.50;;;3.40;99.90;;;4.14;100.00;100543.91;5167677;27;39956;-75
2022/11/14 04:46:47;;;;;;;7.07;3.47;;;3.40;99.90;;;4.15;100.00;100550.91;5166892;27;41637;-76
2022/11/14 04:49:34;;;;;;;7.13;3.58;;;3.60;99.90;;;4.05;100.00;100556.94;5167596;27;41646;-76
2022/11/14 04:52:22;;;;;;;11.85;5.03;;;3.50;99.90;;;4.03;100.00;100563.59;5167427;27;40493;-76
2022/11/14 04:55:10;;;;;;;7.78;4.30;;;3.50;99.90;;;4.05;100.00;100561.47;5151501;27;39567;-75
2022/11/14 04:57:57;;;;;;;7.90;3.00;;;3.50;99.90;;;3.78;100.00;100556.72;5166819;27;41939;-75
2022/11/14 05:00:44;;;;;;;5.43;3.00;;;3.40;99.90;;;3.87;100.00;100566.00;5167170;27;42360;-76
2022/11/14 05:03:31;;;;;;;7.85;3.42;;;3.40;99.90;;;4.01;100.00;100573.78;5166796;27;40326;-74
2022/11/14 05:06:18;;;;;;;7.13;3.25;;;3.50;99.90;;;3.89;100.00;100574.63;5166659;27;40697;-76
2022/11/14 05:09:07;;;;;;;5.40;3.20;;;3.40;99.90;;;4.02;100.00;100578.06;5167054;27;41616;-76
2022/11/14 05:11:54;;;;;;;10.32;4.07;;;3.40;99.90;;;4.04;100.00;100576.78;5167050;27;41897;-76
2022/11/14 05:14:41;;;;;;;9.57;4.20;;;3.40;99.90;;;3.75;100.00;100590.22;5166670;27;41010;-76
2022/11/14 05:17:28;;;;;;;5.68;3.60;;;3.30;99.90;;;3.72;100.00;100587.19;5167351;27;42455;-76
2022/11/14 05:20:15;;;;;;;5.88;3.63;;;3.20;99.90;;;4.02;100.00;100578.06;5166958;27;41650;-75
2022/11/14 05:23:02;;;;;;;5.10;3.20;;;3.30;99.90;;;3.98;100.00;100582.31;5166888;27;41336;-74
2022/11/14 05:26:00;;;;;;;7.18;3.30;;;3.40;99.90;;;3.87;100.00;100579.44;5167023;27;40007;-75
2022/11/14 05:28:47;;;;;;;8.05;3.58;;;3.40;99.90;;;3.90;100.00;100576.28;5166827;27;39866;-74
2022/11/14 05:31:35;;;;;;;7.03;3.70;;;3.40;99.90;;;4.04;100.00;100592.09;5151505;27;40773;-75
2022/11/14 05:34:22;;;;;;;7.13;4.15;;;3.40;99.90;;;4.07;100.00;100586.25;5169721;27;41225;-75
2022/11/14 05:37:08;;;;;;;8.32;3.65;;;3.40;99.90;;;4.03;100.00;100587.78;5166775;27;40505;-76
2022/11/14 05:39:55;;;;;;;7.82;4.68;;;3.40;99.90;;;3.89;100.00;100596.13;5168997;27;41365;-75
2022/11/14 05:42:43;;;;;;;8.15;3.58;;;3.30;99.90;;;4.12;100.00;100600.56;5166366;27;43403;-76
2022/11/14 05:45:31;;;;;;;9.38;5.45;;;3.40;99.90;;;4.11;100.00;100601.66;5169777;27;42135;-75
2022/11/14 05:48:18;;;;;;;;;;;3.40;99.90;;;3.84;100.00;100601.41;5167177;27;41139;-75
2022/11/14 05:51:07;;;;;;;9.77;4.65;;;3.30;99.90;;;3.94;100.00;100604.28;5169048;27;40970;-76
2022/11/14 05:53:54;;;;;;;7.28;3.63;;;3.30;99.90;;;4.03;100.00;100607.38;5169936;27;42863;-75
2022/11/14 05:56:41;;;;;;;10.82;4.43;;;3.30;99.90;;;4.17;100.00;100610.59;5170235;27;42350;-75
2022/11/14 05:59:29;;;;;;;6.93;3.80;;;3.30;99.90;;;4.18;100.00;100601.50;5170533;27;40530;-75
2022/11/14 06:02:16;;;;;;;9.02;5.20;;;3.40;99.90;;;4.09;100.00;100602.94;5170224;27;39916;-74
2022/11/14 06:05:03;;;;;;;9.57;5.33;;;3.40;99.90;;;4.28;100.00;100603.53;5170638;27;42748;-74
2022/11/14 06:07:56;;;;;;;11.32;6.53;;;3.40;99.90;;;4.29;100.00;100605.16;5170063;27;41508;-75
2022/11/14 06:10:43;;;;;;;11.68;6.65;;;3.50;99.90;;;4.45;100.00;100606.25;5169588;27;41392;-74
2022/11/14 06:13:31;;;;;;;8.93;4.60;;;3.50;99.90;;;4.61;100.00;100618.88;5169966;27;40688;-76
2022/11/14 06:16:20;;;;;;;7.25;4.25;;;3.60;99.90;;;4.44;100.00;100607.28;5170209;27;42229;-76
2022/11/14 06:19:07;;;;;;;9.15;4.25;;;3.60;99.90;;;4.67;100.00;100612.53;5169864;27;41409;-76
2022/11/14 06:21:54;;;;;;;8.02;4.22;;;3.60;99.90;;;4.55;100.00;100619.84;5169785;27;40166;-75
2022/11/14 06:24:41;;;;;;;9.38;4.78;;;3.60;99.90;;;4.44;100.00;100618.03;5169977;27;39902;-75
2022/11/14 06:27:28;;;;;;;8.52;4.53;;;3.60;99.90;;;4.41;100.00;100618.53;5172729;27;41858;-75
2022/11/14 06:30:15;;;;;;;9.00;4.57;;;3.60;99.90;;;4.36;100.00;100615.75;5172871;27;41549;-74
2022/11/14 06:33:04;;;;;;;;;;;3.60;99.90;;;4.31;100.00;100609.22;5170700;27;41095;-75
2022/11/14 06:35:50;;;;;;;9.50;4.85;;;3.60;99.90;;;4.37;100.00;100617.41;5168375;27;40846;-73
2022/11/14 06:38:39;;;;;;;7.57;4.40;;;3.50;99.20;;;4.61;100.00;100609.97;5169253;27;43251;-74
2022/11/14 06:41:26;;;;;;;7.72;4.35;;;3.60;99.90;;;4.67;100.00;100612.53;5169188;27;42068;-75
2022/11/14 06:44:14;;;;;;;7.82;4.00;;;3.80;99.30;;;4.64;100.00;100607.63;5169476;27;40015;-74
2022/11/14 06:47:01;;;;;;;9.82;4.35;;;3.80;96.70;;;4.71;100.00;100609.34;5172301;27;40817;-75
2022/11/14 06:49:50;;;;;;;7.80;4.38;;;3.70;95.40;;;4.47;100.00;100606.81;5169187;27;41673;-76
2022/11/14 06:52:37;;;;;;;8.48;3.63;;;3.60;94.00;;;4.50;100.00;100609.00;5168908;27;40984;-76
2022/11/14 06:55:24;;;;;;;9.13;3.78;;;3.60;97.60;;;4.39;100.00;100612.59;5168934;27;40613;-75
2022/11/14 06:58:11;;;;;;;7.28;4.22;;;3.60;95.10;;;4.60;100.00;100613.75;5169019;27;39961;-76
2022/11/14 07:01:03;;;;;;;6.70;3.75;;;3.70;95.50;;;5.07;100.00;100615.25;5168945;27;42689;-73
2022/11/14 07:03:51;;;;;;;9.90;4.55;;;3.90;92.80;;;4.77;100.00;100617.25;5168562;27;42232;-76
2022/11/14 07:06:39;;;;;;;;;;;3.70;84.80;;;4.67;100.00;100622.44;5168304;27;40993;-74
2022/11/14 07:09:27;;;;;;;7.97;3.65;;;3.70;91.10;;;4.85;100.00;100629.47;5151482;27;39323;-75
2022/11/14 07:12:13;;;;;;;;;;;3.80;84.90;;;4.44;100.00;100618.88;5148358;27;42624;-76
2022/11/14 07:15:00;;;;;;;8.02;4.25;;;3.70;79.00;;;4.60;100.00;100621.81;5148032;27;42275;-75
2022/11/14 07:17:47;;;;;;;6.72;3.33;;;3.80;84.90;;;4.67;100.00;100617.91;5150738;27;40380;-73
2022/11/14 07:20:34;;;;;;;7.72;4.07;;;3.80;79.00;;;4.85;100.00;100629.47;5147690;27;40848;-76
2022/11/14 07:23:22;;;;;;;9.02;3.58;;;3.80;84.90;;;4.85;100.00;100629.47;5147739;27;41701;-75
2022/11/14 07:26:11;;;;;;;4.97;3.28;;;3.80;84.90;;;4.73;100.00;100624.16;5147688;27;41747;-76
2022/11/14 07:28:58;;;;;;;7.60;3.25;;;3.70;64.10;;;4.99;100.00;100625.38;5147990;27;41135;-76
2022/11/14 07:31:45;;;;;;;5.45;3.38;;;3.90;83.70;;;5.28;99.99;100624.41;5132175;27;39903;-75
2022/11/14 07:34:32;;;;;;;6.05;3.70;;;4.10;68.80;;;5.31;98.82;100624.72;5164370;27;42535;-74
2022/11/14 07:37:19;;;;;;;7.78;3.20;;;4.10;51.90;;;5.40;98.23;100620.53;5168409;27;41419;-75
2022/11/14 07:40:09;;;;;;;7.15;3.95;;;4.30;38.70;;;5.75;95.10;100621.25;5170823;27;40390;-77
2022/11/14 07:42:59;;;;;;;8.73;3.95;;;4.40;24.20;;;5.35;96.73;100623.19;5168116;27;39951;-77
2022/11/14 07:45:46;;;;;;;9.02;4.15;;;4.20;21.10;;;5.69;95.77;100617.69;5157575;27;41935;-74
2022/11/14 07:48:34;;;;;;;11.13;6.30;;;4.40;20.00;;;5.89;94.90;100621.66;5152546;27;41423;-76
2022/11/14 07:51:21;;;;;;;;;;;4.70;10.10;;;6.10;92.58;100625.44;5147870;27;40818;-78
2022/11/14 07:54:10;;;;;;;6.60;3.38;;;4.90;1.00;;;6.28;91.10;100618.88;5147159;27;40747;-77
2022/11/14 07:56:59;;;;;;;4.57;2.55;;;5.00;1.00;;;6.31;91.04;100612.97;5147319;27;43020;-75
2022/11/14 07:59:46;;;;;;;4.75;3.10;;;5.10;1.00;;;6.16;90.50;100621.72;5147141;27;42109;-77
2022/11/14 08:02:33;;;;;;;6.97;3.28;;;4.80;1.00;;;5.51;93.50;100612.59;5147070;27;41251;-77
2022/11/14 08:05:20;;;;;;;5.63;3.13;;;4.40;1.00;;;5.14;96.41;100616.72;5147035;27;41920;-76
2022/11/14 08:08:07;;;;;;;4.65;2.78;;;4.10;1.00;;;5.31;96.39;100611.25;5150334;27;41664;-75
2022/11/14 08:10:57;;;;;;;5.20;2.58;;;4.20;1.00;;;5.60;94.71;100613.78;5146939;27;41224;-75
2022/11/14 08:13:45;;;;;;;5.38;2.90;;;4.30;1.00;;;5.62;93.44;100610.84;5146770;27;40987;-77
2022/11/14 08:16:32;;;;;;;6.25;2.70;;;4.30;1.00;;;5.24;94.91;100616.03;5146680;27;40074;-76
2022/11/14 08:19:20;;;;;;;5.82;2.78;;;4.10;1.00;;;5.07;96.26;100617.94;5146788;27;43049;-76
2022/11/14 08:22:07;;;;;;;7.35;3.30;;;4.00;1.00;;;5.14;96.77;100615.88;5149807;27;42127;-76
2022/11/14 08:24:54;;;;;;;10.38;3.13;;;4.10;1.00;;;5.52;93.91;100616.94;5146810;27;41283;-78
2022/11/14 08:27:41;;;;;;;9.07;2.85;;;4.30;1.00;;;4.94;97.03;100614.53;5146808;27;39912;-75
2022/11/14 08:30:30;;;;;;;5.63;2.58;;;4.10;1.00;;;5.08;97.12;100611.50;5145862;27;41580;-75
2022/11/14 08:33:17;;;;;;;5.25;2.45;;;4.20;1.00;;;5.28;96.69;100608.28;5148251;27;40426;-75
2022/11/14 08:36:07;;;;;;;4.20;2.40;;;4.20;1.00;;;5.49;94.28;100612.06;5148528;27;40119;-76
2022/11/14 08:38:54;;;;;;;7.05;3.30;;;4.30;1.00;;;5.34;94.40;100609.97;5147486;27;39906;-76
2022/11/14 08:41:40;;;;;;;5.40;2.72;;;4.20;1.00;;;5.32;94.86;100604.03;5146408;27;42688;-76
2022/11/14 08:44:29;;;;;;;6.88;3.17;;;4.20;1.00;;;5.32;95.15;100607.53;5151233;27;20102;-75
2022/11/14 08:47:17;;;;;;;7.63;3.30;;;4.20;1.00;;;5.75;93.47;100603.22;5147496;27;40081;-77
2022/11/14 08:50:05;;;;;;;8.25;4.15;;;4.40;1.00;;;6.08;90.29;100608.72;5147384;27;40026;-76
2022/11/14 08:52:53;;;;;;;7.18;4.80;;;4.60;1.00;;;5.88;90.89;100604.69;5145544;27;41797;-77
2022/11/14 08:55:44;;;;;;;12.23;4.68;;;4.60;1.00;;;5.75;92.50;100602.41;5146976;27;42490;-77
2022/11/14 08:58:32;;;;;;;8.52;4.88;;;4.60;1.00;;;5.75;92.63;100605.91;5146567;27;41834;-77
2022/11/14 09:01:19;;;;;;;;;;;4.40;1.00;;;6.01;91.86;100606.19;5147316;27;41265;-74
2022/11/14 09:04:07;;;;;;;9.15;4.90;;;4.70;1.00;;;6.06;90.94;100611.66;5146853;27;42891;-78
2022/11/14 09:06:54;;;;;;;8.68;4.68;;;4.70;1.00;;;6.22;90.12;100603.72;5146668;27;41348;-77
2022/11/14 09:09:41;;;;;;;7.78;4.95;;;4.80;1.00;;;6.52;89.19;100602.34;5145782;27;40467;-73
2022/11/14 09:12:28;;;;;;;7.00;4.22;;;5.00;1.00;;;6.75;87.57;100591.22;5146434;27;40433;-75
2022/11/14 09:15:15;;;;;;;6.03;3.95;;;5.30;1.00;;;7.28;84.89;100595.84;5146560;27;41840;-76
2022/11/14 09:18:02;;;;;;;8.73;4.82;;;5.70;1.00;;;7.47;84.02;100590.78;5146324;27;42605;-75
2022/11/14 09:20:51;;;;;;;6.28;4.63;;;5.90;1.00;;;6.56;85.81;100592.66;5146202;27;41132;-76
2022/11/14 09:23:38;;;;;;;7.57;4.50;;;5.10;1.00;;;6.84;85.48;100589.66;5146778;27;40782;-76
2022/11/14 09:26:24;;;;;;;5.85;4.15;;;5.30;1.00;;;7.50;81.98;100577.56;5148596;27;41848;-76
2022/11/14 09:29:12;;;;;;;5.90;3.80;;;5.90;1.00;;;7.54;81.53;100586.78;5150219;27;42562;-75
2022/11/14 09:31:59;;;;;;;;;;;6.10;1.00;;;7.69;80.39;100566.28;5150436;27;40499;-75
2022/11/14 09:34:46;;;;;;;6.80;4.10;;;6.10;1.00;;;7.95;77.97;100577.13;5165747;27;40624;-76
2022/11/14 09:37:34;;;;;;;6.85;3.80;;;6.10;1.00;;;7.91;78.27;100577.69;5170635;27;42617;-75
2022/11/14 09:40:22;;;;;;;10.18;4.60;;;6.30;1.00;;;7.76;78.62;100566.03;5173801;27;41464;-77
2022/11/14 09:43:33;;;;;;;7.32;4.32;;;6.00;1.00;;;7.72;79.58;100560.34;5170386;27;41036;-76
2022/11/14 09:46:25;;;;;;;8.98;4.60;;;6.10;1.00;;;8.25;77.06;100563.66;5170626;27;39995;-77
2022/11/14 09:49:25;;;;;;;6.90;4.57;;;6.50;1.00;;;7.53;78.01;100560.03;5170657;27;42489;-76
2022/11/14 09:52:27;;;;;;;7.57;4.05;;;6.00;1.00;;;6.99;80.13;100553.84;5170759;27;41241;-77
2022/11/14 09:55:21;;;;;;;8.13;4.40;;;5.60;1.00;;;6.39;84.19;100557.75;5170303;27;41190;-75
2022/11/14 09:58:16;;;;;;;8.05;4.70;;;5.10;1.00;;;6.04;87.53;100559.88;5170826;27;40979;-77
2022/11/14 10:01:08;;;;;;;8.45;5.35;;;4.70;1.00;;;6.07;87.80;100553.16;5173441;27;42800;-76
2022/11/14 10:04:04;;;;;;;8.57;4.95;;;4.60;1.00;;;6.82;83.79;100554.03;5170242;27;41442;-76
2022/11/14 10:07:02;;;;;;;7.72;4.47;;;5.20;1.00;;;6.89;82.83;100543.00;5170036;27;40339;-76
2022/11/14 10:10:03;;;;;;;8.15;4.10;;;5.30;1.00;;;6.95;83.16;100541.13;5170086;27;40137;-74
2022/11/14 10:13:04;;;;;;;8.88;4.03;;;5.20;1.00;;;7.54;81.83;100532.75;5170377;27;43446;-76
2022/11/14 10:16:03;;;;;;;6.65;3.60;;;5.90;1.00;;;8.18;78.64;100530.69;5172929;27;42064;-77
2022/11/14 10:19:04;;;;;;;5.88;3.35;;;6.40;1.00;;;8.70;75.30;100538.81;5170229;27;40117;-75
2022/11/14 10:22:15;;;;;;;9.18;3.13;;;6.80;1.00;;;8.73;74.39;100546.38;5169883;27;39933;-78
2022/11/14 10:25:22;;;;;;;5.88;3.50;;;7.00;1.00;;;8.85;73.16;100537.94;5154090;27;41663;-75
2022/11/14 10:28:43;;;;;;;6.33;3.80;;;7.30;1.00;;;8.86;73.79;100540.38;5154176;27;41117;-76
2022/11/14 10:31:44;;;;;;;6.63;3.78;;;7.30;1.00;;;8.81;73.09;100532.28;5166879;27;41091;-75
2022/11/14 10:34:36;;;;;;;5.43;3.42;;;7.40;1.00;;;8.39;75.16;100527.97;5151729;27;40058;-80
2022/11/14 10:37:31;;;;;;;7.55;3.45;;;6.90;1.00;;;8.72;74.34;100518.47;5149624;27;41890;-75
2022/11/14 10:40:22;;;;;;;5.38;3.22;;;7.20;1.00;;;8.84;73.55;100525.50;5172718;27;40812;-78
2022/11/14 10:43:22;;;;;;;7.18;3.97;;;7.30;1.00;;;8.78;73.33;100522.78;5151138;27;38738;-78
2022/11/14 10:46:16;;;;;;;6.75;3.40;;;7.10;1.00;;;8.10;74.83;100525.78;5154499;27;40498;-76
2022/11/14 10:49:16;;;;;;;8.00;3.58;;;6.50;1.00;;;7.73;76.24;100513.34;5148357;27;41813;-73
2022/11/14 10:52:09;;;;;;;7.45;3.70;;;6.40;1.00;;;7.68;76.79;100522.25;5153731;27;42271;-76
2022/11/14 10:55:05;;;;;;;6.95;3.80;;;6.50;1.00;;;7.70;77.09;100516.59;5148069;27;40811;-76
2022/11/14 10:57:51;;;;;;;6.00;3.70;;;6.30;1.00;;;7.39;79.00;100513.78;5151711;27;41115;-74
2022/11/14 11:00:40;;;;;;;6.45;3.65;;;6.00;1.00;;;7.18;79.83;100507.50;5158591;27;41835;-79
2022/11/14 11:03:42;;;;;;;7.40;4.32;;;5.80;1.00;;;6.82;81.83;100510.03;5168988;27;41446;-79
2022/11/14 11:06:30;;;;;;;9.98;4.85;;;5.50;1.00;;;6.80;82.73;100504.09;5132856;27;39515;-72
2022/11/14 11:12:38;;;;;;;7.38;4.25;;;5.40;1.00;;;6.41;84.44;100497.09;5152215;27;41823;-78
2022/11/14 11:15:29;;;;;;;9.63;4.68;;;5.20;1.00;;;6.43;84.93;100497.66;5168955;27;41327;-78
2022/11/14 11:18:29;;;;;;;6.45;4.03;;;5.20;1.00;;;6.28;85.60;100492.97;5169103;27;40125;-74
2022/11/14 11:21:19;;;;;;;6.78;3.83;;;5.10;1.00;;;6.93;82.88;100484.72;5169037;27;40535;-76
2022/11/14 11:24:09;;;;;;;6.63;4.82;;;5.50;1.00;;;6.71;84.20;100490.28;5167297;27;43261;-78
2022/11/14 11:27:15;;;;;;;7.72;4.50;;;5.40;1.00;;;7.04;83.91;100488.28;5168661;27;42648;-79
2022/11/14 11:30:18;;;;;;;8.90;4.82;;;5.70;1.00;;;7.07;81.36;100485.03;5160329;27;41449;-78
2022/11/14 11:33:24;;;;;;;9.02;5.15;;;5.90;1.00;;;6.74;83.60;100481.66;5147844;27;39961;-76
2022/11/14 11:36:18;;;;;;;9.48;5.38;;;5.50;1.00;;;7.39;80.47;100484.09;5145338;27;40799;-79
2022/11/14 11:39:05;;;;;;;7.78;4.53;;;6.00;1.00;;;7.98;77.77;100487.41;5157557;27;42010;-78
2022/11/14 11:41:54;;;;;;;8.77;5.13;;;6.30;1.00;;;8.00;77.38;100485.25;5168209;27;40188;-79
2022/11/14 11:44:48;;;;;;;8.68;5.00;;;6.60;1.00;;;7.73;77.91;100486.31;5152791;27;38566;-79
2022/11/14 11:47:36;;;;;;;7.65;4.78;;;6.50;1.00;;;7.25;79.57;100485.66;5153368;27;41617;-79
2022/11/14 11:50:24;;;;;;;10.57;5.47;;;6.00;1.00;;;7.24;80.85;100489.44;5148034;27;41234;-78
2022/11/14 11:53:21;;;;;;;9.63;5.00;;;5.90;1.00;;;7.13;79.49;100477.78;5147482;27;41798;-76
2022/11/14 11:56:13;;;;;;;11.18;5.70;;;5.70;1.00;;;6.91;81.96;100483.38;5147671;27;41728;-78
2022/11/14 11:59:17;;;;;;;8.45;5.57;;;5.80;1.00;;;6.80;82.72;100488.69;5147341;27;42647;-78
2022/11/14 12:02:22;;;;;;;7.30;4.80;;;5.60;1.00;;;6.77;82.57;100485.72;5147777;27;41398;-76